createdAt,value
2018-12-27T00:00:04.973Z,1021.67
2018-12-27T00:01:04.952Z,1021.62
2018-12-27T00:02:04.939Z,1021.65
2018-12-27T00:03:04.924Z,1021.69
2018-12-27T00:04:04.922Z,1021.67
2018-12-27T00:05:04.901Z,1021.70
2018-12-27T00:06:04.892Z,1021.73
2018-12-27T00:07:04.880Z,1021.72
2018-12-27T00:08:05.735Z,1021.78
2018-12-27T00:09:04.859Z,1021.66
2018-12-27T00:10:04.848Z,1021.66
2018-12-27T00:11:04.838Z,1021.60
2018-12-27T00:12:04.826Z,1021.57
2018-12-27T00:13:04.814Z,1021.55
2018-12-27T00:14:04.805Z,1021.59
2018-12-27T00:15:04.793Z,1021.54
2018-12-27T00:16:04.783Z,1021.52
2018-12-27T00:17:04.772Z,1021.57
2018-12-27T00:18:04.760Z,1021.49
2018-12-27T00:19:04.751Z,1021.52
2018-12-27T00:20:04.750Z,1021.53
2018-12-27T00:21:04.752Z,1021.48
2018-12-27T00:22:04.756Z,1021.50
2018-12-27T00:23:04.708Z,1021.46
2018-12-27T00:24:04.701Z,1021.49
2018-12-27T00:25:04.704Z,1021.42
2018-12-27T00:26:04.706Z,1021.45
2018-12-27T00:27:04.709Z,1021.42
2018-12-27T00:28:04.649Z,1021.42
2018-12-27T00:29:04.640Z,1021.44
2018-12-27T00:30:04.629Z,1021.45
2018-12-27T00:31:04.618Z,1021.42
2018-12-27T00:32:04.619Z,1021.46
2018-12-27T00:33:04.597Z,1021.43
2018-12-27T00:34:04.588Z,1021.45
2018-12-27T00:35:04.573Z,1021.43
2018-12-27T00:36:04.561Z,1021.43
2018-12-27T00:37:04.556Z,1021.44
2018-12-27T00:38:04.549Z,1021.40
2018-12-27T00:39:04.537Z,1021.43
2018-12-27T00:40:04.521Z,1021.44
2018-12-27T00:41:04.507Z,1021.43
2018-12-27T00:42:04.495Z,1021.42
2018-12-27T00:43:04.486Z,1021.45
2018-12-27T00:44:04.474Z,1021.37
2018-12-27T00:45:04.466Z,1021.42
2018-12-27T00:46:04.455Z,1021.44
2018-12-27T00:47:04.444Z,1021.47
2018-12-27T00:48:04.438Z,1021.41
2018-12-27T00:49:04.419Z,1021.38
2018-12-27T00:50:04.408Z,1021.36
2018-12-27T00:51:04.407Z,1021.37
2018-12-27T00:52:04.434Z,1021.42
2018-12-27T00:53:04.377Z,1021.38
2018-12-27T00:54:04.367Z,1021.41
2018-12-27T00:55:04.353Z,1021.39
2018-12-27T00:56:04.345Z,1021.42
2018-12-27T00:57:04.332Z,1021.35
2018-12-27T00:58:04.322Z,1021.41
2018-12-27T00:59:04.310Z,1021.32
2018-12-27T01:00:04.298Z,1021.42
2018-12-27T01:01:04.288Z,1021.41
2018-12-27T01:02:04.277Z,1021.39
2018-12-27T01:03:11.019Z,1021.37
2018-12-27T01:04:28.735Z,1021.34
2018-12-27T01:05:28.721Z,1021.44
2018-12-27T01:06:28.711Z,1021.38
2018-12-27T01:07:28.707Z,1021.40
2018-12-27T01:08:28.696Z,1021.40
2018-12-27T01:09:28.688Z,1021.41
2018-12-27T01:10:28.670Z,1021.40
2018-12-27T01:11:28.656Z,1021.31
2018-12-27T01:12:28.645Z,1021.36
2018-12-27T01:13:28.637Z,1021.38
2018-12-27T01:14:28.622Z,1021.43
2018-12-27T01:15:28.614Z,1021.40
2018-12-27T01:16:28.601Z,1021.34
2018-12-27T01:17:28.589Z,1021.45
2018-12-27T01:18:28.617Z,1021.40
2018-12-27T01:19:28.567Z,1021.42
2018-12-27T01:20:28.556Z,1021.41
2018-12-27T01:21:28.547Z,1021.34
2018-12-27T01:22:28.533Z,1021.40
2018-12-27T01:23:28.522Z,1021.38
2018-12-27T01:24:28.511Z,1021.36
2018-12-27T01:25:28.500Z,1021.39
2018-12-27T01:26:28.489Z,1021.33
2018-12-27T01:27:28.478Z,1021.36
2018-12-27T01:28:28.475Z,1021.36
2018-12-27T01:29:28.459Z,1021.34
2018-12-27T01:30:28.445Z,1021.32
2018-12-27T01:31:28.436Z,1021.37
2018-12-27T01:32:28.427Z,1021.36
2018-12-27T01:33:28.418Z,1021.36
2018-12-27T01:34:28.404Z,1021.36
2018-12-27T01:35:28.390Z,1021.31
2018-12-27T01:36:28.380Z,1021.35
2018-12-27T01:37:28.376Z,1021.34
2018-12-27T01:38:28.356Z,1021.29
2018-12-27T01:39:28.346Z,1021.32
2018-12-27T01:40:28.334Z,1021.32
2018-12-27T01:41:28.328Z,1021.28
2018-12-27T01:42:28.312Z,1021.31
2018-12-27T01:43:28.301Z,1021.32
2018-12-27T01:44:28.294Z,1021.32
2018-12-27T01:45:28.283Z,1021.31
2018-12-27T01:46:28.269Z,1021.28
2018-12-27T01:47:28.258Z,1021.26
2018-12-27T01:48:28.251Z,1021.28
2018-12-27T01:49:28.237Z,1021.35
2018-12-27T01:50:28.225Z,1021.26
2018-12-27T01:51:28.215Z,1021.34
2018-12-27T01:52:28.204Z,1021.28
2018-12-27T01:53:28.192Z,1021.33
2018-12-27T01:54:28.181Z,1021.30
2018-12-27T01:55:28.169Z,1021.31
2018-12-27T01:56:28.162Z,1021.26
2018-12-27T01:57:28.148Z,1021.30
2018-12-27T01:58:28.140Z,1021.24
2018-12-27T01:59:28.124Z,1021.33
2018-12-27T02:00:28.117Z,1021.33
2018-12-27T02:01:28.103Z,1021.33
2018-12-27T02:02:28.091Z,1021.35
2018-12-27T02:03:28.081Z,1021.34
2018-12-27T02:04:28.068Z,1021.32
2018-12-27T02:05:28.057Z,1021.29
2018-12-27T02:06:28.049Z,1021.34
2018-12-27T02:07:28.035Z,1021.29
2018-12-27T02:08:28.025Z,1021.32
2018-12-27T02:09:28.030Z,1021.31
2018-12-27T02:10:28.008Z,1021.34
2018-12-27T02:11:28.000Z,1021.34
2018-12-27T02:12:28.013Z,1021.28
2018-12-27T02:13:27.973Z,1021.34
2018-12-27T02:14:27.962Z,1021.28
2018-12-27T02:15:27.951Z,1021.36
2018-12-27T02:16:27.934Z,1021.35
2018-12-27T02:17:27.925Z,1021.36
2018-12-27T02:18:27.912Z,1021.32
2018-12-27T02:19:27.906Z,1021.32
2018-12-27T02:20:27.894Z,1021.33
2018-12-27T02:21:27.879Z,1021.33
2018-12-27T02:22:27.868Z,1021.37
2018-12-27T02:23:27.857Z,1021.36
2018-12-27T02:24:27.853Z,1021.35
2018-12-27T02:25:27.840Z,1021.28
2018-12-27T02:26:27.828Z,1021.35
2018-12-27T02:27:27.812Z,1021.35
2018-12-27T02:28:27.802Z,1021.25
2018-12-27T02:29:27.791Z,1021.30
2018-12-27T02:30:27.784Z,1021.30
2018-12-27T02:31:27.768Z,1021.33
2018-12-27T02:32:27.798Z,1021.32
2018-12-27T02:33:35.065Z,1021.35
2018-12-27T02:34:52.215Z,1021.27
2018-12-27T02:35:52.206Z,1021.26
2018-12-27T02:36:52.200Z,1021.29
2018-12-27T02:37:52.189Z,1021.23
2018-12-27T02:38:52.173Z,1021.24
2018-12-27T02:39:52.162Z,1021.24
2018-12-27T02:40:52.161Z,1021.24
2018-12-27T02:41:52.143Z,1021.22
2018-12-27T02:42:52.134Z,1021.17
2018-12-27T02:43:52.121Z,1021.24
2018-12-27T02:44:52.108Z,1021.26
2018-12-27T02:45:52.103Z,1021.21
2018-12-27T02:46:52.088Z,1021.21
2018-12-27T02:47:52.075Z,1021.16
2018-12-27T02:48:52.064Z,1021.16
2018-12-27T02:49:52.054Z,1021.11
2018-12-27T02:50:52.042Z,1021.11
2018-12-27T02:51:52.032Z,1021.10
2018-12-27T02:52:52.025Z,1021.08
2018-12-27T02:53:52.009Z,1021.10
2018-12-27T02:54:52.006Z,1021.10
2018-12-27T02:55:51.986Z,1021.07
2018-12-27T02:56:51.976Z,1021.05
2018-12-27T02:57:51.964Z,1021.03
2018-12-27T02:58:51.953Z,1021.04
2018-12-27T02:59:51.944Z,1021.03
2018-12-27T03:00:51.933Z,1021.00
2018-12-27T03:01:51.921Z,1021.00
2018-12-27T03:02:51.911Z,1020.96
2018-12-27T03:03:51.899Z,1020.93
2018-12-27T03:04:51.889Z,1020.98
2018-12-27T03:05:51.879Z,1020.91
2018-12-27T03:06:51.864Z,1020.94
2018-12-27T03:07:51.852Z,1020.89
2018-12-27T03:08:51.844Z,1020.86
2018-12-27T03:09:51.833Z,1020.90
2018-12-27T03:10:51.826Z,1020.92
2018-12-27T03:11:51.809Z,1020.84
2018-12-27T03:12:51.798Z,1020.88
2018-12-27T03:13:51.786Z,1020.89
2018-12-27T03:14:51.775Z,1020.90
2018-12-27T03:15:51.765Z,1020.91
2018-12-27T03:16:51.763Z,1020.91
2018-12-27T03:17:51.747Z,1020.91
2018-12-27T03:18:51.735Z,1020.93
2018-12-27T03:19:51.720Z,1020.87
2018-12-27T03:20:51.711Z,1020.89
2018-12-27T03:21:51.710Z,1020.91
2018-12-27T03:22:51.687Z,1020.92
2018-12-27T03:23:51.676Z,1020.84
2018-12-27T03:24:51.665Z,1020.87
2018-12-27T03:25:51.669Z,1020.84
2018-12-27T03:26:51.646Z,1020.85
2018-12-27T03:27:51.636Z,1020.92
2018-12-27T03:28:51.621Z,1020.91
2018-12-27T03:29:51.610Z,1020.87
2018-12-27T03:30:51.607Z,1020.92
2018-12-27T03:31:51.590Z,1020.91
2018-12-27T03:32:51.603Z,1020.88
2018-12-27T03:33:52.791Z,1020.90
2018-12-27T03:34:51.559Z,1020.89
2018-12-27T03:35:51.543Z,1020.86
2018-12-27T03:36:51.531Z,1020.88
2018-12-27T03:37:51.523Z,1020.86
2018-12-27T03:38:51.509Z,1020.83
2018-12-27T03:39:51.503Z,1020.86
2018-12-27T03:40:51.487Z,1020.89
2018-12-27T03:41:51.478Z,1020.85
2018-12-27T03:42:51.467Z,1020.94
2018-12-27T03:43:51.459Z,1020.84
2018-12-27T03:44:51.451Z,1020.93
2018-12-27T03:45:51.434Z,1020.82
2018-12-27T03:46:51.420Z,1020.84
2018-12-27T03:47:51.409Z,1020.83
2018-12-27T03:48:51.398Z,1020.87
2018-12-27T03:49:51.384Z,1020.88
2018-12-27T03:50:51.373Z,1020.89
2018-12-27T03:51:51.366Z,1020.85
2018-12-27T03:52:51.349Z,1020.82
2018-12-27T03:53:51.342Z,1020.80
2018-12-27T03:54:51.336Z,1020.84
2018-12-27T03:55:51.320Z,1020.81
2018-12-27T03:56:51.307Z,1020.86
2018-12-27T03:57:51.298Z,1020.81
2018-12-27T03:58:51.285Z,1020.82
2018-12-27T03:59:51.277Z,1020.85
2018-12-27T04:00:51.266Z,1020.90
2018-12-27T04:01:51.252Z,1020.84
2018-12-27T04:02:51.245Z,1020.78
2018-12-27T04:03:51.229Z,1020.86
2018-12-27T04:04:51.216Z,1020.80
2018-12-27T04:05:51.209Z,1020.80
2018-12-27T04:06:51.196Z,1020.82
2018-12-27T04:07:51.182Z,1020.75
2018-12-27T04:08:51.179Z,1020.85
2018-12-27T04:09:51.173Z,1020.84
2018-12-27T04:10:51.213Z,1020.75
2018-12-27T04:11:51.138Z,1020.74
2018-12-27T04:12:51.128Z,1020.72
2018-12-27T04:13:51.119Z,1020.77
2018-12-27T04:14:51.112Z,1020.67
2018-12-27T04:15:51.092Z,1020.76
2018-12-27T04:16:51.087Z,1020.75
2018-12-27T04:17:51.071Z,1020.69
2018-12-27T04:18:51.067Z,1020.72
2018-12-27T04:19:51.046Z,1020.70
2018-12-27T04:20:51.091Z,1020.70
2018-12-27T04:21:51.032Z,1020.66
2018-12-27T04:22:51.012Z,1020.69
2018-12-27T04:23:51.005Z,1020.62
2018-12-27T04:24:50.996Z,1020.67
2018-12-27T04:25:50.980Z,1020.67
2018-12-27T04:26:50.974Z,1020.70
2018-12-27T04:27:50.956Z,1020.67
2018-12-27T04:28:50.950Z,1020.65
2018-12-27T04:29:50.937Z,1020.62
2018-12-27T04:30:50.923Z,1020.67
2018-12-27T04:31:50.912Z,1020.64
2018-12-27T04:32:50.903Z,1020.59
2018-12-27T04:33:50.889Z,1020.57
2018-12-27T04:34:50.879Z,1020.61
2018-12-27T04:35:50.867Z,1020.62
2018-12-27T04:36:50.855Z,1020.58
2018-12-27T04:37:50.843Z,1020.55
2018-12-27T04:38:50.835Z,1020.54
2018-12-27T04:39:50.825Z,1020.49
2018-12-27T04:40:50.811Z,1020.53
2018-12-27T04:41:50.799Z,1020.48
2018-12-27T04:42:50.787Z,1020.50
2018-12-27T04:43:50.777Z,1020.47
2018-12-27T04:44:50.765Z,1020.42
2018-12-27T04:45:50.753Z,1020.48
2018-12-27T04:46:50.744Z,1020.42
2018-12-27T04:47:50.736Z,1020.37
2018-12-27T04:48:50.719Z,1020.35
2018-12-27T04:49:50.714Z,1020.40
2018-12-27T04:50:50.703Z,1020.38
2018-12-27T04:51:50.692Z,1020.36
2018-12-27T04:52:50.677Z,1020.31
2018-12-27T04:53:50.668Z,1020.36
2018-12-27T04:54:50.668Z,1020.39
2018-12-27T04:55:50.678Z,1020.33
2018-12-27T04:56:50.682Z,1020.41
2018-12-27T04:57:50.624Z,1020.40
2018-12-27T04:58:50.622Z,1020.33
2018-12-27T04:59:50.621Z,1020.38
2018-12-27T05:00:50.624Z,1020.27
2018-12-27T05:01:50.572Z,1020.28
2018-12-27T05:02:50.565Z,1020.30
2018-12-27T05:03:50.548Z,1020.27
2018-12-27T05:04:50.537Z,1020.30
2018-12-27T05:05:50.533Z,1020.27
2018-12-27T05:06:50.519Z,1020.29
2018-12-27T05:07:50.504Z,1020.29
2018-12-27T05:08:50.541Z,1020.31
2018-12-27T05:09:50.480Z,1020.28
2018-12-27T05:10:50.473Z,1020.33
2018-12-27T05:11:50.459Z,1020.29
2018-12-27T05:12:50.450Z,1020.35
2018-12-27T05:13:50.434Z,1020.32
2018-12-27T05:14:50.425Z,1020.34
2018-12-27T05:15:50.421Z,1020.33
2018-12-27T05:16:50.407Z,1020.37
2018-12-27T05:17:50.391Z,1020.33
2018-12-27T05:18:50.395Z,1020.33
2018-12-27T05:19:50.366Z,1020.32
2018-12-27T05:20:50.361Z,1020.39
2018-12-27T05:21:50.355Z,1020.34
2018-12-27T05:22:50.338Z,1020.36
2018-12-27T05:23:50.322Z,1020.36
2018-12-27T05:24:50.310Z,1020.47
2018-12-27T05:25:50.298Z,1020.42
2018-12-27T05:26:50.287Z,1020.45
2018-12-27T05:27:50.277Z,1020.43
2018-12-27T05:28:50.264Z,1020.41
2018-12-27T05:29:50.258Z,1020.45
2018-12-27T05:30:50.241Z,1020.44
2018-12-27T05:31:51.733Z,1020.45
2018-12-27T05:32:50.218Z,1020.44
2018-12-27T05:33:50.207Z,1020.41
2018-12-27T05:34:50.196Z,1020.43
2018-12-27T05:35:50.185Z,1020.47
2018-12-27T05:36:50.181Z,1020.41
2018-12-27T05:37:50.160Z,1020.44
2018-12-27T05:38:50.149Z,1020.50
2018-12-27T05:39:50.146Z,1020.41
2018-12-27T05:40:50.130Z,1020.49
2018-12-27T05:41:50.120Z,1020.43
2018-12-27T05:42:50.105Z,1020.46
2018-12-27T05:43:50.098Z,1020.43
2018-12-27T05:44:50.081Z,1020.43
2018-12-27T05:45:50.071Z,1020.48
2018-12-27T05:46:50.059Z,1020.50
2018-12-27T05:47:50.050Z,1020.48
2018-12-27T05:48:50.047Z,1020.42
2018-12-27T05:49:50.025Z,1020.40
2018-12-27T05:50:50.013Z,1020.38
2018-12-27T05:51:50.004Z,1020.38
2018-12-27T05:52:49.990Z,1020.44
2018-12-27T05:53:49.979Z,1020.47
2018-12-27T05:54:49.971Z,1020.48
2018-12-27T05:55:49.957Z,1020.47
2018-12-27T05:56:49.947Z,1020.51
2018-12-27T05:57:49.939Z,1020.50
2018-12-27T05:58:49.922Z,1020.46
2018-12-27T05:59:49.918Z,1020.53
2018-12-27T06:00:49.906Z,1020.51
2018-12-27T06:01:49.889Z,1020.52
2018-12-27T06:02:49.878Z,1020.51
2018-12-27T06:03:49.869Z,1020.54
2018-12-27T06:04:49.854Z,1020.55
2018-12-27T06:05:49.847Z,1020.50
2018-12-27T06:06:49.832Z,1020.54
2018-12-27T06:07:49.823Z,1020.50
2018-12-27T06:08:49.810Z,1020.55
2018-12-27T06:09:49.801Z,1020.52
2018-12-27T06:10:49.788Z,1020.53
2018-12-27T06:11:49.775Z,1020.54
2018-12-27T06:12:49.763Z,1020.53
2018-12-27T06:13:49.753Z,1020.62
2018-12-27T06:14:49.742Z,1020.56
2018-12-27T06:15:49.728Z,1020.58
2018-12-27T06:16:49.719Z,1020.55
2018-12-27T06:17:49.710Z,1020.58
2018-12-27T06:18:49.702Z,1020.59
2018-12-27T06:19:49.685Z,1020.55
2018-12-27T06:20:49.673Z,1020.52
2018-12-27T06:21:49.665Z,1020.55
2018-12-27T06:22:49.650Z,1020.59
2018-12-27T06:23:49.640Z,1020.58
2018-12-27T06:24:49.636Z,1020.57
2018-12-27T06:25:49.619Z,1020.58
2018-12-27T06:26:49.607Z,1020.55
2018-12-27T06:27:49.594Z,1020.49
2018-12-27T06:28:49.585Z,1020.59
2018-12-27T06:29:49.577Z,1020.53
2018-12-27T06:30:49.560Z,1020.54
2018-12-27T06:31:49.548Z,1020.50
2018-12-27T06:32:49.543Z,1020.50
2018-12-27T06:33:49.528Z,1020.46
2018-12-27T06:34:49.512Z,1020.47
2018-12-27T06:35:49.504Z,1020.45
2018-12-27T06:36:49.492Z,1020.47
2018-12-27T06:37:49.481Z,1020.45
2018-12-27T06:38:49.469Z,1020.50
2018-12-27T06:39:49.457Z,1020.49
2018-12-27T06:40:49.444Z,1020.55
2018-12-27T06:41:49.436Z,1020.57
2018-12-27T06:42:49.424Z,1020.45
2018-12-27T06:43:49.410Z,1020.54
2018-12-27T06:44:49.401Z,1020.55
2018-12-27T06:45:49.388Z,1020.49
2018-12-27T06:46:49.377Z,1020.55
2018-12-27T06:47:49.365Z,1020.55
2018-12-27T06:48:49.355Z,1020.53
2018-12-27T06:49:49.346Z,1020.49
2018-12-27T06:50:49.337Z,1020.48
2018-12-27T06:51:49.325Z,1020.49
2018-12-27T06:52:49.309Z,1020.50
2018-12-27T06:53:49.299Z,1020.45
2018-12-27T06:54:49.289Z,1020.44
2018-12-27T06:55:49.276Z,1020.45
2018-12-27T06:56:49.267Z,1020.47
2018-12-27T06:57:49.257Z,1020.41
2018-12-27T06:58:49.242Z,1020.38
2018-12-27T06:59:49.232Z,1020.41
2018-12-27T07:00:49.221Z,1020.31
2018-12-27T07:01:49.210Z,1020.40
2018-12-27T07:02:49.198Z,1020.31
2018-12-27T07:03:49.187Z,1020.30
2018-12-27T07:04:49.264Z,1020.33
2018-12-27T07:05:49.166Z,1020.26
2018-12-27T07:06:49.155Z,1020.28
2018-12-27T07:07:49.142Z,1020.33
2018-12-27T07:08:49.134Z,1020.33
2018-12-27T07:09:49.120Z,1020.17
2018-12-27T07:10:49.114Z,1020.28
2018-12-27T07:11:49.097Z,1020.33
2018-12-27T07:12:49.088Z,1020.24
2018-12-27T07:13:49.074Z,1020.19
2018-12-27T07:14:49.062Z,1020.18
2018-12-27T07:15:49.054Z,1020.13
2018-12-27T07:16:49.039Z,1020.12
2018-12-27T07:17:49.025Z,1020.17
2018-12-27T07:18:49.024Z,1020.19
2018-12-27T07:19:49.017Z,1020.18
2018-12-27T07:20:48.994Z,1020.26
2018-12-27T07:21:48.982Z,1020.21
2018-12-27T07:22:48.972Z,1020.20
2018-12-27T07:23:48.958Z,1020.24
2018-12-27T07:24:48.951Z,1020.21
2018-12-27T07:25:48.936Z,1020.23
2018-12-27T07:26:48.925Z,1020.21
2018-12-27T07:27:48.915Z,1020.24
2018-12-27T07:28:48.908Z,1020.28
2018-12-27T07:29:48.890Z,1020.25
2018-12-27T07:30:48.878Z,1020.30
2018-12-27T07:31:48.867Z,1020.29
2018-12-27T07:32:48.863Z,1020.29
2018-12-27T07:33:48.846Z,1020.26
2018-12-27T07:34:56.245Z,1020.32
2018-12-27T07:36:13.300Z,1020.29
2018-12-27T07:37:13.287Z,1020.42
2018-12-27T07:38:13.291Z,1020.32
2018-12-27T07:39:13.265Z,1020.33
2018-12-27T07:40:13.253Z,1020.31
2018-12-27T07:41:13.241Z,1020.35
2018-12-27T07:42:13.230Z,1020.33
2018-12-27T07:43:13.219Z,1020.38
2018-12-27T07:44:13.207Z,1020.32
2018-12-27T07:45:13.203Z,1020.28
2018-12-27T07:46:13.187Z,1020.29
2018-12-27T07:47:13.174Z,1020.33
2018-12-27T07:48:13.162Z,1020.31
2018-12-27T07:49:13.149Z,1020.25
2018-12-27T07:50:13.141Z,1020.29
2018-12-27T07:51:13.129Z,1020.21
2018-12-27T07:52:13.120Z,1020.13
2018-12-27T07:53:13.111Z,1020.26
2018-12-27T07:54:13.094Z,1020.30
2018-12-27T07:55:13.089Z,1020.32
2018-12-27T07:56:13.069Z,1020.49
2018-12-27T07:57:13.059Z,1020.49
2018-12-27T07:58:13.052Z,1020.45
2018-12-27T07:59:13.035Z,1020.49
2018-12-27T08:00:13.097Z,1020.53
2018-12-27T08:01:13.013Z,1020.57
2018-12-27T08:02:13.001Z,1020.51
2018-12-27T08:03:12.989Z,1020.54
2018-12-27T08:04:12.979Z,1020.55
2018-12-27T08:05:12.969Z,1020.53
2018-12-27T08:06:12.957Z,1020.52
2018-12-27T08:07:12.945Z,1020.52
2018-12-27T08:08:12.933Z,1020.43
2018-12-27T08:09:12.928Z,1020.43
2018-12-27T08:10:12.925Z,1020.45
2018-12-27T08:11:12.897Z,1020.47
2018-12-27T08:12:12.893Z,1020.50
2018-12-27T08:13:12.881Z,1020.47
2018-12-27T08:14:12.867Z,1020.48
2018-12-27T08:15:12.859Z,1020.50
2018-12-27T08:16:12.842Z,1020.53
2018-12-27T08:17:12.858Z,1020.54
2018-12-27T08:18:12.819Z,1020.59
2018-12-27T08:19:12.810Z,1020.54
2018-12-27T08:20:12.795Z,1020.51
2018-12-27T08:21:12.823Z,1020.50
2018-12-27T08:22:12.772Z,1020.47
2018-12-27T08:23:12.775Z,1020.51
2018-12-27T08:24:12.750Z,1020.46
2018-12-27T08:25:12.739Z,1020.47
2018-12-27T08:26:12.731Z,1020.48
2018-12-27T08:27:12.715Z,1020.50
2018-12-27T08:28:12.705Z,1020.46
2018-12-27T08:29:12.692Z,1020.47
2018-12-27T08:30:12.683Z,1020.38
2018-12-27T08:31:12.675Z,1020.45
2018-12-27T08:32:12.659Z,1020.39
2018-12-27T08:33:12.649Z,1020.48
2018-12-27T08:34:12.637Z,1020.41
2018-12-27T08:35:12.625Z,1020.42
2018-12-27T08:36:12.614Z,1020.49
2018-12-27T08:37:12.603Z,1020.41
2018-12-27T08:38:12.590Z,1020.42
2018-12-27T08:39:12.579Z,1020.38
2018-12-27T08:40:12.574Z,1020.38
2018-12-27T08:41:12.556Z,1020.37
2018-12-27T08:42:12.754Z,1020.38
2018-12-27T08:43:12.535Z,1020.40
2018-12-27T08:44:12.522Z,1020.40
2018-12-27T08:45:12.514Z,1020.42
2018-12-27T08:46:12.504Z,1020.43
2018-12-27T08:47:12.487Z,1020.39
2018-12-27T08:48:12.476Z,1020.41
2018-12-27T08:49:12.466Z,1020.38
2018-12-27T08:50:12.455Z,1020.39
2018-12-27T08:51:12.443Z,1020.35
2018-12-27T08:52:12.432Z,1020.42
2018-12-27T08:53:12.420Z,1020.37
2018-12-27T08:54:12.409Z,1020.39
2018-12-27T08:55:12.396Z,1020.39
2018-12-27T08:56:12.387Z,1020.37
2018-12-27T08:57:12.376Z,1020.39
2018-12-27T08:58:12.363Z,1020.41
2018-12-27T08:59:12.352Z,1020.44
2018-12-27T09:00:12.341Z,1020.37
2018-12-27T09:01:12.331Z,1020.44
2018-12-27T09:02:12.319Z,1020.30
2018-12-27T09:03:12.311Z,1020.35
2018-12-27T09:04:12.297Z,1020.32
2018-12-27T09:05:18.716Z,1020.37
2018-12-27T09:06:36.751Z,1020.29
2018-12-27T09:07:36.738Z,1020.29
2018-12-27T09:08:36.731Z,1020.28
2018-12-27T09:09:36.722Z,1020.24
2018-12-27T09:10:36.706Z,1020.29
2018-12-27T09:11:36.696Z,1020.29
2018-12-27T09:12:36.690Z,1020.32
2018-12-27T09:13:36.675Z,1020.24
2018-12-27T09:14:36.660Z,1020.29
2018-12-27T09:15:36.654Z,1020.30
2018-12-27T09:16:36.638Z,1020.27
2018-12-27T09:17:36.631Z,1020.32
2018-12-27T09:18:36.654Z,1020.31
2018-12-27T09:19:36.614Z,1020.31
2018-12-27T09:20:36.594Z,1020.28
2018-12-27T09:21:36.582Z,1020.30
2018-12-27T09:22:36.571Z,1020.29
2018-12-27T09:23:36.564Z,1020.32
2018-12-27T09:24:36.568Z,1020.28
2018-12-27T09:25:36.577Z,1020.35
2018-12-27T09:26:36.579Z,1020.30
2018-12-27T09:27:36.522Z,1020.34
2018-12-27T09:28:36.519Z,1020.34
2018-12-27T09:29:36.522Z,1020.38
2018-12-27T09:30:36.526Z,1020.34
2018-12-27T09:31:36.531Z,1020.40
2018-12-27T09:32:36.460Z,1020.37
2018-12-27T09:33:36.452Z,1020.32
2018-12-27T09:34:36.442Z,1020.35
2018-12-27T09:35:36.427Z,1020.35
2018-12-27T09:36:36.414Z,1020.38
2018-12-27T09:37:36.402Z,1020.35
2018-12-27T09:38:36.391Z,1020.39
2018-12-27T09:39:36.386Z,1020.33
2018-12-27T09:40:36.370Z,1020.38
2018-12-27T09:41:36.359Z,1020.40
2018-12-27T09:42:36.347Z,1020.35
2018-12-27T09:43:36.343Z,1020.37
2018-12-27T09:44:36.324Z,1020.35
2018-12-27T09:45:36.311Z,1020.36
2018-12-27T09:46:36.307Z,1020.31
2018-12-27T09:47:36.290Z,1020.30
2018-12-27T09:48:36.280Z,1020.33
2018-12-27T09:49:36.274Z,1020.29
2018-12-27T09:50:36.260Z,1020.34
2018-12-27T09:51:36.246Z,1020.30
2018-12-27T09:52:36.235Z,1020.31
2018-12-27T09:53:36.226Z,1020.35
2018-12-27T09:54:36.210Z,1020.27
2018-12-27T09:55:36.200Z,1020.28
2018-12-27T09:56:36.190Z,1020.26
2018-12-27T09:57:36.182Z,1020.26
2018-12-27T09:58:36.168Z,1020.25
2018-12-27T09:59:36.160Z,1020.21
2018-12-27T10:00:36.143Z,1020.26
2018-12-27T10:01:36.132Z,1020.22
2018-12-27T10:02:36.126Z,1020.25
2018-12-27T10:03:36.110Z,1020.21
2018-12-27T10:04:36.099Z,1020.21
2018-12-27T10:05:36.087Z,1020.22
2018-12-27T10:06:36.075Z,1020.20
2018-12-27T10:07:36.065Z,1020.13
2018-12-27T10:08:36.060Z,1020.13
2018-12-27T10:09:36.041Z,1020.09
2018-12-27T10:10:36.041Z,1020.08
2018-12-27T10:11:36.022Z,1020.07
2018-12-27T10:12:36.014Z,1020.05
2018-12-27T10:13:36.005Z,1020.04
2018-12-27T10:14:35.989Z,1020.02
2018-12-27T10:15:35.982Z,1019.99
2018-12-27T10:16:35.970Z,1020.04
2018-12-27T10:17:35.953Z,1019.97
2018-12-27T10:18:35.941Z,1019.99
2018-12-27T10:19:35.929Z,1019.96
2018-12-27T10:20:35.918Z,1019.96
2018-12-27T10:21:35.906Z,1020.00
2018-12-27T10:22:35.901Z,1019.88
2018-12-27T10:23:35.885Z,1019.81
2018-12-27T10:24:35.876Z,1019.88
2018-12-27T10:25:35.863Z,1019.77
2018-12-27T10:26:35.852Z,1019.78
2018-12-27T10:27:35.846Z,1019.85
2018-12-27T10:28:35.834Z,1019.77
2018-12-27T10:29:35.820Z,1019.82
2018-12-27T10:30:35.806Z,1019.81
2018-12-27T10:31:35.796Z,1019.81
2018-12-27T10:32:35.786Z,1019.79
2018-12-27T10:33:35.774Z,1019.78
2018-12-27T10:34:35.761Z,1019.70
2018-12-27T10:35:41.129Z,1019.75
2018-12-27T10:36:35.739Z,1019.76
2018-12-27T10:37:35.728Z,1019.75
2018-12-27T10:38:35.723Z,1019.74
2018-12-27T10:39:35.706Z,1019.71
2018-12-27T10:40:35.698Z,1019.72
2018-12-27T10:41:35.689Z,1019.68
2018-12-27T10:42:35.678Z,1019.69
2018-12-27T10:43:35.663Z,1019.74
2018-12-27T10:44:35.653Z,1019.68
2018-12-27T10:45:35.641Z,1019.72
2018-12-27T10:46:35.635Z,1019.71
2018-12-27T10:47:35.622Z,1019.67
2018-12-27T10:48:35.609Z,1019.68
2018-12-27T10:49:35.597Z,1019.72
2018-12-27T10:50:35.586Z,1019.64
2018-12-27T10:51:35.573Z,1019.69
2018-12-27T10:52:35.562Z,1019.67
2018-12-27T10:53:35.557Z,1019.66
2018-12-27T10:54:35.540Z,1019.59
2018-12-27T10:55:35.532Z,1019.62
2018-12-27T10:56:35.519Z,1019.59
2018-12-27T10:57:35.508Z,1019.57
2018-12-27T10:58:35.501Z,1019.61
2018-12-27T10:59:35.485Z,1019.48
2018-12-27T11:00:35.474Z,1019.49
2018-12-27T11:01:35.471Z,1019.46
2018-12-27T11:02:35.452Z,1019.44
2018-12-27T11:03:35.445Z,1019.45
2018-12-27T11:04:35.430Z,1019.42
2018-12-27T11:05:35.418Z,1019.44
2018-12-27T11:06:35.407Z,1019.41
2018-12-27T11:07:35.399Z,1019.45
2018-12-27T11:08:35.385Z,1019.37
2018-12-27T11:09:35.375Z,1019.47
2018-12-27T11:10:35.361Z,1019.38
2018-12-27T11:11:35.351Z,1019.38
2018-12-27T11:12:35.340Z,1019.35
2018-12-27T11:13:35.334Z,1019.35
2018-12-27T11:14:35.319Z,1019.34
2018-12-27T11:15:35.308Z,1019.36
2018-12-27T11:16:35.301Z,1019.32
2018-12-27T11:17:35.285Z,1019.35
2018-12-27T11:18:35.275Z,1019.34
2018-12-27T11:19:35.262Z,1019.34
2018-12-27T11:20:35.251Z,1019.28
2018-12-27T11:21:35.246Z,1019.25
2018-12-27T11:22:35.233Z,1019.28
2018-12-27T11:23:35.220Z,1019.28
2018-12-27T11:24:35.213Z,1019.33
2018-12-27T11:25:35.204Z,1019.25
2018-12-27T11:26:35.185Z,1019.23
2018-12-27T11:27:35.175Z,1019.28
2018-12-27T11:28:35.167Z,1019.28
2018-12-27T11:29:35.156Z,1019.26
2018-12-27T11:30:35.142Z,1019.26
2018-12-27T11:31:35.133Z,1019.21
2018-12-27T11:32:35.118Z,1019.23
2018-12-27T11:33:35.112Z,1019.21
2018-12-27T11:34:35.097Z,1019.26
2018-12-27T11:35:35.087Z,1019.20
2018-12-27T11:36:35.076Z,1019.21
2018-12-27T11:37:35.065Z,1019.10
2018-12-27T11:38:35.055Z,1019.18
2018-12-27T11:39:35.042Z,1019.14
2018-12-27T11:40:35.034Z,1019.16
2018-12-27T11:41:35.024Z,1019.15
2018-12-27T11:42:35.008Z,1019.13
2018-12-27T11:43:34.998Z,1019.14
2018-12-27T11:44:34.987Z,1019.11
2018-12-27T11:45:34.979Z,1019.20
2018-12-27T11:46:34.964Z,1019.16
2018-12-27T11:47:34.951Z,1019.12
2018-12-27T11:48:34.940Z,1019.07
2018-12-27T11:49:34.930Z,1019.08
2018-12-27T11:50:34.928Z,1019.14
2018-12-27T11:51:34.907Z,1019.11
2018-12-27T11:52:34.903Z,1019.13
2018-12-27T11:53:34.892Z,1019.15
2018-12-27T11:54:34.899Z,1019.16
2018-12-27T11:55:34.863Z,1019.19
2018-12-27T11:56:34.861Z,1019.25
2018-12-27T11:57:34.842Z,1019.14
2018-12-27T11:58:34.830Z,1019.22
2018-12-27T11:59:34.819Z,1019.22
2018-12-27T12:00:34.810Z,1019.25
2018-12-27T12:01:34.808Z,1019.24
2018-12-27T12:02:34.790Z,1019.26
2018-12-27T12:03:34.774Z,1019.19
2018-12-27T12:04:34.762Z,1019.22
2018-12-27T12:05:34.756Z,1019.21
2018-12-27T12:06:34.742Z,1019.28